LFGA METAR and TAF | Updated Today

LFGA METAR

Colmar-Houssen Airport

Observation time: 9 min. ago

LFGA 200630Z AUTO 17004KT 130V240 CAVOK 24/15 Q1021

Need help? Read our tutorial on how to read METARs or read the parsed version below.

Colmar-Houssen Airport (LFGA) METAR

  • Weather conditions on Fri, 20 May 2022 06:30:00 +0000 (9 min. ago):
  • Present conditions: Dry
  • Clouds: Clear skies
  • Visibility: Greater than 10 km
  • Wind: 170 degrees at 4 knots
  • Temperature: 24 celsius
  • Dew point: 15 celsius
  • Pressure: 1021 millibars
  • Remarks: None


Useful to know...

  • Codes: LFGA/CMR
  • Airport elevation: 628ft
  • Municipality: Colmar/Houssen
  • Country: France
  • Continent: Europe